Portada
METAR-TAF:

METAR-TAF

Aeropuertos :

Aeropuerto de Estocolmo-Arlanda

Estocolmo-Arlanda, Suecia

latitud: 59-39N, longitud: 017-57E, altitud: 38 m

Observación

El informe se hizo hace 42 minutos, a las 07:20 UTC
Viento 12 kt del norte
Temperatura 6°C
Humedad 81%
Presión 1038 hPa
Visibilidad 10 km o más
Cielo cubierto a una altura de 1600 ft

METAR: ESSA 180720Z 01012KT 9999 OVC016 06/03 Q1038 R01L/19//95 R08/19//95 R01R/19//95 NOSIG

Hora: 09:02 (08:02 UTC)

Pronóstico

El informe se hizo hace 2 horas y 32 minutos, a las 05:30 UTC
Pronóstico válido del 18 a las 06 UTC al 19 a las 06 UTC
Viento 10 kt del norte
Visibilidad 10 km o más
Cielo nuboso a una altura de 1700 ft
Probabilidad 40%
del 18 a las 06 UTC al 18 a las 09 UTC
Cielo nuboso a una altura de 1400 ft

TAF: ESSA 180530Z 1806/1906 01010KT 9999 BKN017 PROB40 1806/1809 BKN014

Observaciones y pronósticos meteorológicos de más de 4000 aeropuertos (mensajes METAR y TAF).

Los puntos amarillos y rojos representan las estaciones disponibles.

Ponga el ratón en el punto deseado para ver el nombre de la estación.

Haga clic para ver las observaciones y los pronósticos meteorológicos.

Para cambiar el mapa : haga clic en los botones verdes con una cruz de color negro para hacer un zoom, en el botón verde con un guión para alejar o en las flechas verdes para mapas adyacentes.


METAR-TAF: